sensor_id;sensor_type;location;lat;lon;timestamp;P1;durP1;ratioP1;P2;durP2;ratioP2
46110;SDS011;31849;55.992;37.252;2023-05-14T00:03:06;4.28;;;2.47;;
46110;SDS011;31849;55.992;37.252;2023-05-14T00:08:10;3.15;;;2.20;;
46110;SDS011;31849;55.992;37.252;2023-05-14T00:13:15;5.30;;;2.28;;
46110;SDS011;31849;55.992;37.252;2023-05-14T00:18:18;5.55;;;2.65;;
46110;SDS011;31849;55.992;37.252;2023-05-14T00:23:22;3.60;;;2.10;;
46110;SDS011;31849;55.992;37.252;2023-05-14T00:28:28;4.93;;;2.93;;
46110;SDS011;31849;55.992;37.252;2023-05-14T00:33:31;4.38;;;2.30;;
46110;SDS011;31849;55.992;37.252;2023-05-14T00:38:35;4.78;;;2.40;;
46110;SDS011;31849;55.992;37.252;2023-05-14T00:43:40;16.42;;;2.92;;
46110;SDS011;31849;55.992;37.252;2023-05-14T00:48:44;4.38;;;2.75;;
46110;SDS011;31849;55.992;37.252;2023-05-14T00:53:48;7.50;;;3.13;;
46110;SDS011;31849;55.992;37.252;2023-05-14T00:58:53;7.63;;;2.90;;
46110;SDS011;31849;55.992;37.252;2023-05-14T01:09:02;6.93;;;2.60;;
46110;SDS011;31849;55.992;37.252;2023-05-14T01:14:27;4.22;;;2.58;;
46110;SDS011;31849;55.992;37.252;2023-05-14T01:19:38;3.05;;;1.95;;
46110;SDS011;31849;55.992;37.252;2023-05-14T01:24:44;4.22;;;2.47;;
46110;SDS011;31849;55.992;37.252;2023-05-14T01:29:48;5.18;;;2.30;;
46110;SDS011;31849;55.992;37.252;2023-05-14T01:34:59;6.32;;;2.08;;
46110;SDS011;31849;55.992;37.252;2023-05-14T01:40:06;3.58;;;2.30;;
46110;SDS011;31849;55.992;37.252;2023-05-14T01:45:11;7.28;;;2.58;;
46110;SDS011;31849;55.992;37.252;2023-05-14T01:50:15;3.40;;;2.33;;
46110;SDS011;31849;55.992;37.252;2023-05-14T01:55:20;3.97;;;2.00;;
46110;SDS011;31849;55.992;37.252;2023-05-14T02:00:25;4.78;;;2.30;;
46110;SDS011;31849;55.992;37.252;2023-05-14T02:05:29;4.20;;;2.07;;
46110;SDS011;31849;55.992;37.252;2023-05-14T02:10:33;4.43;;;2.10;;
46110;SDS011;31849;55.992;37.252;2023-05-14T02:15:37;4.22;;;1.92;;
46110;SDS011;31849;55.992;37.252;2023-05-14T02:20:41;4.80;;;2.22;;
46110;SDS011;31849;55.992;37.252;2023-05-14T02:25:46;4.53;;;2.35;;
46110;SDS011;31849;55.992;37.252;2023-05-14T02:35:52;3.80;;;2.50;;
46110;SDS011;31849;55.992;37.252;2023-05-14T02:40:57;4.45;;;1.85;;
46110;SDS011;31849;55.992;37.252;2023-05-14T02:51:04;7.22;;;2.15;;
46110;SDS011;31849;55.992;37.252;2023-05-14T02:56:10;5.30;;;1.80;;
46110;SDS011;31849;55.992;37.252;2023-05-14T03:01:14;4.22;;;2.20;;
46110;SDS011;31849;55.992;37.252;2023-05-14T03:06:20;3.50;;;1.67;;
46110;SDS011;31849;55.992;37.252;2023-05-14T03:11:25;5.78;;;2.00;;
46110;SDS011;31849;55.992;37.252;2023-05-14T03:21:31;5.28;;;1.95;;
46110;SDS011;31849;55.992;37.252;2023-05-14T03:26:36;5.80;;;1.75;;
46110;SDS011;31849;55.992;37.252;2023-05-14T03:31:40;6.47;;;2.72;;
46110;SDS011;31849;55.992;37.252;2023-05-14T03:36:44;3.83;;;2.17;;
46110;SDS011;31849;55.992;37.252;2023-05-14T03:41:49;2.97;;;1.70;;
46110;SDS011;31849;55.992;37.252;2023-05-14T03:46:53;2.70;;;1.90;;
46110;SDS011;31849;55.992;37.252;2023-05-14T03:51:56;4.93;;;1.65;;
46110;SDS011;31849;55.992;37.252;2023-05-14T03:57:01;4.90;;;2.10;;
46110;SDS011;31849;55.992;37.252;2023-05-14T04:02:05;4.63;;;1.83;;
46110;SDS011;31849;55.992;37.252;2023-05-14T04:07:09;3.50;;;1.77;;
46110;SDS011;31849;55.992;37.252;2023-05-14T04:12:14;3.43;;;2.00;;
46110;SDS011;31849;55.992;37.252;2023-05-14T04:17:17;3.30;;;1.70;;
46110;SDS011;31849;55.992;37.252;2023-05-14T04:22:21;2.93;;;1.77;;
46110;SDS011;31849;55.992;37.252;2023-05-14T04:27:26;4.45;;;1.80;;
46110;SDS011;31849;55.992;37.252;2023-05-14T04:32:30;4.03;;;1.90;;
46110;SDS011;31849;55.992;37.252;2023-05-14T04:37:34;2.50;;;1.60;;
46110;SDS011;31849;55.992;37.252;2023-05-14T04:42:39;5.22;;;1.83;;
46110;SDS011;31849;55.992;37.252;2023-05-14T04:47:42;7.70;;;1.75;;
46110;SDS011;31849;55.992;37.252;2023-05-14T04:52:47;3.00;;;1.60;;
46110;SDS011;31849;55.992;37.252;2023-05-14T04:57:52;5.10;;;1.80;;
46110;SDS011;31849;55.992;37.252;2023-05-14T05:02:55;3.20;;;1.80;;
46110;SDS011;31849;55.992;37.252;2023-05-14T05:07:59;2.08;;;1.50;;
46110;SDS011;31849;55.992;37.252;2023-05-14T05:13:04;4.82;;;1.80;;
46110;SDS011;31849;55.992;37.252;2023-05-14T05:18:07;7.03;;;1.90;;
46110;SDS011;31849;55.992;37.252;2023-05-14T05:23:11;2.38;;;1.70;;
46110;SDS011;31849;55.992;37.252;2023-05-14T05:28:16;2.75;;;1.83;;
46110;SDS011;31849;55.992;37.252;2023-05-14T05:33:19;5.10;;;2.40;;
46110;SDS011;31849;55.992;37.252;2023-05-14T05:38:23;2.53;;;1.90;;
46110;SDS011;31849;55.992;37.252;2023-05-14T05:43:28;5.20;;;1.90;;
46110;SDS011;31849;55.992;37.252;2023-05-14T05:48:31;2.55;;;1.67;;
46110;SDS011;31849;55.992;37.252;2023-05-14T05:53:35;3.28;;;1.60;;
46110;SDS011;31849;55.992;37.252;2023-05-14T05:58:40;4.40;;;1.85;;
46110;SDS011;31849;55.992;37.252;2023-05-14T06:03:43;2.53;;;1.80;;
46110;SDS011;31849;55.992;37.252;2023-05-14T06:08:49;2.53;;;1.60;;
46110;SDS011;31849;55.992;37.252;2023-05-14T06:13:54;2.63;;;1.70;;
46110;SDS011;31849;55.992;37.252;2023-05-14T06:18:58;5.45;;;1.65;;
46110;SDS011;31849;55.992;37.252;2023-05-14T06:24:02;3.08;;;1.70;;
46110;SDS011;31849;55.992;37.252;2023-05-14T06:29:07;3.67;;;1.40;;
46110;SDS011;31849;55.992;37.252;2023-05-14T06:34:11;2.33;;;1.40;;
46110;SDS011;31849;55.992;37.252;2023-05-14T06:39:14;3.97;;;1.40;;
46110;SDS011;31849;55.992;37.252;2023-05-14T06:44:19;2.55;;;1.42;;
46110;SDS011;31849;55.992;37.252;2023-05-14T06:49:23;2.95;;;1.60;;
46110;SDS011;31849;55.992;37.252;2023-05-14T06:54:27;2.58;;;1.63;;
46110;SDS011;31849;55.992;37.252;2023-05-14T06:59:31;3.85;;;1.52;;
46110;SDS011;31849;55.992;37.252;2023-05-14T07:04:35;4.72;;;1.67;;
46110;SDS011;31849;55.992;37.252;2023-05-14T07:09:38;2.58;;;1.50;;
46110;SDS011;31849;55.992;37.252;2023-05-14T07:14:44;3.47;;;1.48;;
46110;SDS011;31849;55.992;37.252;2023-05-14T07:19:47;3.67;;;1.48;;
46110;SDS011;31849;55.992;37.252;2023-05-14T07:24:51;4.75;;;1.40;;
46110;SDS011;31849;55.992;37.252;2023-05-14T07:29:56;2.33;;;1.50;;
46110;SDS011;31849;55.992;37.252;2023-05-14T07:35:00;3.25;;;1.50;;
46110;SDS011;31849;55.992;37.252;2023-05-14T07:45:10;4.15;;;1.25;;
46110;SDS011;31849;55.992;37.252;2023-05-14T07:50:13;2.33;;;1.50;;
46110;SDS011;31849;55.992;37.252;2023-05-14T07:55:17;4.00;;;1.63;;
46110;SDS011;31849;55.992;37.252;2023-05-14T08:00:22;2.73;;;1.53;;
46110;SDS011;31849;55.992;37.252;2023-05-14T08:05:26;2.42;;;1.30;;
46110;SDS011;31849;55.992;37.252;2023-05-14T08:10:29;3.03;;;1.45;;
46110;SDS011;31849;55.992;37.252;2023-05-14T08:15:34;2.10;;;1.40;;
46110;SDS011;31849;55.992;37.252;2023-05-14T08:20:38;3.20;;;1.30;;
46110;SDS011;31849;55.992;37.252;2023-05-14T08:25:41;3.00;;;1.42;;
46110;SDS011;31849;55.992;37.252;2023-05-14T08:30:46;2.60;;;1.10;;
46110;SDS011;31849;55.992;37.252;2023-05-14T08:35:51;3.60;;;1.42;;
46110;SDS011;31849;55.992;37.252;2023-05-14T08:40:55;2.83;;;1.70;;
46110;SDS011;31849;55.992;37.252;2023-05-14T08:46:01;6.28;;;1.60;;
46110;SDS011;31849;55.992;37.252;2023-05-14T08:51:08;2.22;;;1.20;;
46110;SDS011;31849;55.992;37.252;2023-05-14T08:56:11;2.28;;;1.17;;
46110;SDS011;31849;55.992;37.252;2023-05-14T09:01:18;3.55;;;1.40;;
46110;SDS011;31849;55.992;37.252;2023-05-14T09:06:23;4.57;;;2.10;;
46110;SDS011;31849;55.992;37.252;2023-05-14T09:11:27;6.45;;;1.45;;
46110;SDS011;31849;55.992;37.252;2023-05-14T09:16:32;3.50;;;1.50;;
46110;SDS011;31849;55.992;37.252;2023-05-14T09:21:37;2.53;;;1.40;;
46110;SDS011;31849;55.992;37.252;2023-05-14T09:31:46;3.13;;;1.83;;
46110;SDS011;31849;55.992;37.252;2023-05-14T09:36:55;2.83;;;1.45;;
46110;SDS011;31849;55.992;37.252;2023-05-14T09:41:59;2.85;;;1.30;;
46110;SDS011;31849;55.992;37.252;2023-05-14T09:47:05;10.40;;;1.60;;
46110;SDS011;31849;55.992;37.252;2023-05-14T09:52:09;2.83;;;1.45;;
46110;SDS011;31849;55.992;37.252;2023-05-14T09:57:13;3.50;;;1.38;;
46110;SDS011;31849;55.992;37.252;2023-05-14T10:02:21;7.75;;;1.95;;
46110;SDS011;31849;55.992;37.252;2023-05-14T10:07:26;2.08;;;1.35;;
46110;SDS011;31849;55.992;37.252;2023-05-14T10:12:33;3.65;;;1.38;;
46110;SDS011;31849;55.992;37.252;2023-05-14T10:17:43;5.32;;;1.30;;
46110;SDS011;31849;55.992;37.252;2023-05-14T10:22:51;4.75;;;1.38;;
46110;SDS011;31849;55.992;37.252;2023-05-14T10:27:54;2.65;;;1.27;;
46110;SDS011;31849;55.992;37.252;2023-05-14T10:38:10;3.28;;;1.10;;
46110;SDS011;31849;55.992;37.252;2023-05-14T10:43:17;2.45;;;1.30;;
46110;SDS011;31849;55.992;37.252;2023-05-14T10:48:23;2.22;;;1.30;;
46110;SDS011;31849;55.992;37.252;2023-05-14T10:53:32;4.28;;;1.20;;
46110;SDS011;31849;55.992;37.252;2023-05-14T10:58:37;3.35;;;1.33;;
46110;SDS011;31849;55.992;37.252;2023-05-14T11:03:42;3.45;;;1.30;;
46110;SDS011;31849;55.992;37.252;2023-05-14T11:08:47;2.28;;;1.02;;
46110;SDS011;31849;55.992;37.252;2023-05-14T11:13:53;2.03;;;1.23;;
46110;SDS011;31849;55.992;37.252;2023-05-14T11:19:03;3.00;;;1.10;;
46110;SDS011;31849;55.992;37.252;2023-05-14T11:24:07;4.20;;;1.30;;
46110;SDS011;31849;55.992;37.252;2023-05-14T11:29:10;2.92;;;1.10;;
46110;SDS011;31849;55.992;37.252;2023-05-14T11:34:15;1.98;;;1.15;;
46110;SDS011;31849;55.992;37.252;2023-05-14T11:39:19;3.85;;;1.10;;
46110;SDS011;31849;55.992;37.252;2023-05-14T11:44:22;2.90;;;1.67;;
46110;SDS011;31849;55.992;37.252;2023-05-14T11:49:28;3.03;;;2.05;;
46110;SDS011;31849;55.992;37.252;2023-05-14T11:54:31;3.15;;;1.38;;
46110;SDS011;31849;55.992;37.252;2023-05-14T11:59:36;1.85;;;1.10;;
46110;SDS011;31849;55.992;37.252;2023-05-14T12:04:41;2.30;;;0.82;;
46110;SDS011;31849;55.992;37.252;2023-05-14T12:09:46;1.60;;;0.90;;
46110;SDS011;31849;55.992;37.252;2023-05-14T12:14:51;3.60;;;0.90;;
46110;SDS011;31849;55.992;37.252;2023-05-14T12:19:56;4.20;;;1.37;;
46110;SDS011;31849;55.992;37.252;2023-05-14T12:25:00;2.45;;;0.95;;
46110;SDS011;31849;55.992;37.252;2023-05-14T12:30:05;1.98;;;1.00;;
46110;SDS011;31849;55.992;37.252;2023-05-14T12:35:14;4.35;;;1.10;;
46110;SDS011;31849;55.992;37.252;2023-05-14T12:40:17;2.22;;;1.00;;
46110;SDS011;31849;55.992;37.252;2023-05-14T12:45:21;3.03;;;0.97;;
46110;SDS011;31849;55.992;37.252;2023-05-14T12:50:26;1.90;;;1.13;;
46110;SDS011;31849;55.992;37.252;2023-05-14T12:55:30;2.65;;;1.10;;
46110;SDS011;31849;55.992;37.252;2023-05-14T13:00:35;2.20;;;1.20;;
46110;SDS011;31849;55.992;37.252;2023-05-14T13:05:40;3.42;;;1.00;;
46110;SDS011;31849;55.992;37.252;2023-05-14T13:10:43;2.63;;;1.30;;
46110;SDS011;31849;55.992;37.252;2023-05-14T13:15:47;2.40;;;1.07;;
46110;SDS011;31849;55.992;37.252;2023-05-14T13:20:52;2.65;;;1.10;;
46110;SDS011;31849;55.992;37.252;2023-05-14T13:25:56;2.05;;;1.00;;
46110;SDS011;31849;55.992;37.252;2023-05-14T13:31:04;3.40;;;1.00;;
46110;SDS011;31849;55.992;37.252;2023-05-14T13:36:12;3.10;;;0.90;;
46110;SDS011;31849;55.992;37.252;2023-05-14T13:41:16;4.70;;;1.60;;
46110;SDS011;31849;55.992;37.252;2023-05-14T13:46:20;2.23;;;1.10;;
46110;SDS011;31849;55.992;37.252;2023-05-14T13:51:25;3.43;;;1.20;;
46110;SDS011;31849;55.992;37.252;2023-05-14T13:56:28;3.28;;;1.20;;
46110;SDS011;31849;55.992;37.252;2023-05-14T14:01:32;2.40;;;1.13;;
46110;SDS011;31849;55.992;37.252;2023-05-14T14:06:37;3.05;;;0.98;;
46110;SDS011;31849;55.992;37.252;2023-05-14T14:11:41;3.03;;;1.10;;
46110;SDS011;31849;55.992;37.252;2023-05-14T14:16:44;2.40;;;1.17;;
46110;SDS011;31849;55.992;37.252;2023-05-14T14:21:49;6.03;;;1.30;;
46110;SDS011;31849;55.992;37.252;2023-05-14T14:26:54;3.55;;;1.70;;
46110;SDS011;31849;55.992;37.252;2023-05-14T14:31:57;2.73;;;1.20;;
46110;SDS011;31849;55.992;37.252;2023-05-14T14:37:03;2.85;;;1.25;;
46110;SDS011;31849;55.992;37.252;2023-05-14T14:42:07;3.88;;;1.08;;
46110;SDS011;31849;55.992;37.252;2023-05-14T14:47:10;3.83;;;1.00;;
46110;SDS011;31849;55.992;37.252;2023-05-14T14:52:15;3.73;;;1.07;;
46110;SDS011;31849;55.992;37.252;2023-05-14T14:57:19;5.75;;;1.40;;
46110;SDS011;31849;55.992;37.252;2023-05-14T15:02:22;3.03;;;1.10;;
46110;SDS011;31849;55.992;37.252;2023-05-14T15:07:28;2.55;;;1.02;;
46110;SDS011;31849;55.992;37.252;2023-05-14T15:12:33;3.67;;;0.90;;
46110;SDS011;31849;55.992;37.252;2023-05-14T15:17:37;2.77;;;0.90;;
46110;SDS011;31849;55.992;37.252;2023-05-14T15:22:42;2.35;;;1.00;;
46110;SDS011;31849;55.992;37.252;2023-05-14T15:27:46;3.08;;;0.90;;
46110;SDS011;31849;55.992;37.252;2023-05-14T15:32:49;4.03;;;1.10;;
46110;SDS011;31849;55.992;37.252;2023-05-14T15:42:58;3.88;;;1.17;;
46110;SDS011;31849;55.992;37.252;2023-05-14T15:48:02;3.83;;;1.23;;
46110;SDS011;31849;55.992;37.252;2023-05-14T15:53:07;5.13;;;1.47;;
46110;SDS011;31849;55.992;37.252;2023-05-14T15:58:11;6.90;;;1.45;;
46110;SDS011;31849;55.992;37.252;2023-05-14T16:03:15;2.93;;;0.90;;
46110;SDS011;31849;55.992;37.252;2023-05-14T16:08:20;3.50;;;1.33;;
46110;SDS011;31849;55.992;37.252;2023-05-14T16:13:24;2.97;;;1.50;;
46110;SDS011;31849;55.992;37.252;2023-05-14T16:18:28;4.03;;;1.80;;
46110;SDS011;31849;55.992;37.252;2023-05-14T16:23:33;4.30;;;1.40;;
46110;SDS011;31849;55.992;37.252;2023-05-14T16:28:36;2.22;;;1.48;;
46110;SDS011;31849;55.992;37.252;2023-05-14T16:33:42;4.15;;;1.73;;
46110;SDS011;31849;55.992;37.252;2023-05-14T16:38:47;4.90;;;1.90;;
46110;SDS011;31849;55.992;37.252;2023-05-14T16:44:08;3.38;;;1.75;;
46110;SDS011;31849;55.992;37.252;2023-05-14T16:49:11;2.20;;;1.67;;
46110;SDS011;31849;55.992;37.252;2023-05-14T16:54:16;2.13;;;1.60;;
46110;SDS011;31849;55.992;37.252;2023-05-14T16:59:20;4.72;;;1.90;;
46110;SDS011;31849;55.992;37.252;2023-05-14T17:04:23;2.80;;;1.98;;
46110;SDS011;31849;55.992;37.252;2023-05-14T17:09:29;6.18;;;2.22;;
46110;SDS011;31849;55.992;37.252;2023-05-14T17:14:33;4.72;;;2.17;;
46110;SDS011;31849;55.992;37.252;2023-05-14T17:19:36;4.85;;;2.17;;
46110;SDS011;31849;55.992;37.252;2023-05-14T17:24:41;5.55;;;2.53;;
46110;SDS011;31849;55.992;37.252;2023-05-14T17:29:45;5.18;;;2.30;;
46110;SDS011;31849;55.992;37.252;2023-05-14T17:34:51;5.57;;;2.70;;
46110;SDS011;31849;55.992;37.252;2023-05-14T17:39:56;5.72;;;3.05;;
46110;SDS011;31849;55.992;37.252;2023-05-14T17:45:00;8.32;;;3.25;;
46110;SDS011;31849;55.992;37.252;2023-05-14T17:50:06;6.30;;;2.80;;
46110;SDS011;31849;55.992;37.252;2023-05-14T18:00:15;6.70;;;3.10;;
46110;SDS011;31849;55.992;37.252;2023-05-14T18:05:19;8.63;;;2.83;;
46110;SDS011;31849;55.992;37.252;2023-05-14T18:10:24;11.13;;;3.30;;
46110;SDS011;31849;55.992;37.252;2023-05-14T18:15:30;4.93;;;3.45;;
46110;SDS011;31849;55.992;37.252;2023-05-14T18:20:33;4.93;;;3.00;;
46110;SDS011;31849;55.992;37.252;2023-05-14T18:25:38;6.05;;;3.40;;
46110;SDS011;31849;55.992;37.252;2023-05-14T18:30:42;7.63;;;3.33;;
46110;SDS011;31849;55.992;37.252;2023-05-14T18:35:46;7.00;;;3.90;;
46110;SDS011;31849;55.992;37.252;2023-05-14T18:40:51;6.77;;;3.90;;
46110;SDS011;31849;55.992;37.252;2023-05-14T18:45:55;9.88;;;4.63;;
46110;SDS011;31849;55.992;37.252;2023-05-14T18:50:58;10.15;;;5.55;;
46110;SDS011;31849;55.992;37.252;2023-05-14T18:56:03;15.35;;;7.47;;
46110;SDS011;31849;55.992;37.252;2023-05-14T19:01:07;22.60;;;9.57;;
46110;SDS011;31849;55.992;37.252;2023-05-14T19:06:10;16.73;;;7.25;;
46110;SDS011;31849;55.992;37.252;2023-05-14T19:11:16;23.73;;;10.02;;
46110;SDS011;31849;55.992;37.252;2023-05-14T19:16:19;22.13;;;12.13;;
46110;SDS011;31849;55.992;37.252;2023-05-14T19:21:23;19.13;;;11.10;;
46110;SDS011;31849;55.992;37.252;2023-05-14T19:26:29;21.92;;;10.07;;
46110;SDS011;31849;55.992;37.252;2023-05-14T19:31:32;19.90;;;9.85;;
46110;SDS011;31849;55.992;37.252;2023-05-14T19:36:36;20.80;;;10.90;;
46110;SDS011;31849;55.992;37.252;2023-05-14T19:41:41;26.88;;;12.20;;
46110;SDS011;31849;55.992;37.252;2023-05-14T19:51:48;20.02;;;8.93;;
46110;SDS011;31849;55.992;37.252;2023-05-14T19:56:53;10.48;;;6.53;;
46110;SDS011;31849;55.992;37.252;2023-05-14T20:01:56;9.93;;;5.72;;
46110;SDS011;31849;55.992;37.252;2023-05-14T20:07:00;15.82;;;6.18;;
46110;SDS011;31849;55.992;37.252;2023-05-14T20:12:05;14.13;;;6.97;;
46110;SDS011;31849;55.992;37.252;2023-05-14T20:17:09;16.58;;;6.88;;
46110;SDS011;31849;55.992;37.252;2023-05-14T20:22:13;13.98;;;6.15;;
46110;SDS011;31849;55.992;37.252;2023-05-14T20:27:18;11.50;;;6.05;;
46110;SDS011;31849;55.992;37.252;2023-05-14T20:32:22;11.98;;;6.28;;
46110;SDS011;31849;55.992;37.252;2023-05-14T20:37:26;10.43;;;6.57;;
46110;SDS011;31849;55.992;37.252;2023-05-14T20:42:31;11.02;;;7.00;;
46110;SDS011;31849;55.992;37.252;2023-05-14T20:47:37;16.65;;;7.78;;
46110;SDS011;31849;55.992;37.252;2023-05-14T20:52:40;10.77;;;7.13;;
46110;SDS011;31849;55.992;37.252;2023-05-14T20:57:45;15.27;;;7.95;;
46110;SDS011;31849;55.992;37.252;2023-05-14T21:02:50;13.95;;;7.90;;
46110;SDS011;31849;55.992;37.252;2023-05-14T21:07:54;24.38;;;8.18;;
46110;SDS011;31849;55.992;37.252;2023-05-14T21:12:59;16.23;;;8.10;;
46110;SDS011;31849;55.992;37.252;2023-05-14T21:18:02;19.70;;;7.63;;
46110;SDS011;31849;55.992;37.252;2023-05-14T21:23:06;12.95;;;7.15;;
46110;SDS011;31849;55.992;37.252;2023-05-14T21:28:11;15.20;;;7.07;;
46110;SDS011;31849;55.992;37.252;2023-05-14T21:33:14;17.13;;;8.55;;
46110;SDS011;31849;55.992;37.252;2023-05-14T21:38:18;13.18;;;7.15;;
46110;SDS011;31849;55.992;37.252;2023-05-14T21:43:23;13.43;;;7.07;;
46110;SDS011;31849;55.992;37.252;2023-05-14T21:53:30;10.65;;;7.05;;
46110;SDS011;31849;55.992;37.252;2023-05-14T21:58:35;13.15;;;7.57;;
46110;SDS011;31849;55.992;37.252;2023-05-14T22:03:39;14.57;;;7.43;;
46110;SDS011;31849;55.992;37.252;2023-05-14T22:08:42;13.55;;;7.82;;
46110;SDS011;31849;55.992;37.252;2023-05-14T22:13:47;10.18;;;7.75;;
46110;SDS011;31849;55.992;37.252;2023-05-14T22:23:54;12.40;;;7.82;;
46110;SDS011;31849;55.992;37.252;2023-05-14T22:28:59;17.42;;;8.25;;
46110;SDS011;31849;55.992;37.252;2023-05-14T22:39:06;15.52;;;8.00;;
46110;SDS011;31849;55.992;37.252;2023-05-14T22:44:14;11.50;;;7.50;;
46110;SDS011;31849;55.992;37.252;2023-05-14T22:54:21;12.07;;;7.78;;
46110;SDS011;31849;55.992;37.252;2023-05-14T22:59:26;16.00;;;7.60;;
46110;SDS011;31849;55.992;37.252;2023-05-14T23:04:30;14.32;;;7.43;;
46110;SDS011;31849;55.992;37.252;2023-05-14T23:09:33;11.52;;;7.45;;
46110;SDS011;31849;55.992;37.252;2023-05-14T23:14:38;8.98;;;7.10;;
46110;SDS011;31849;55.992;37.252;2023-05-14T23:24:45;9.48;;;6.78;;
46110;SDS011;31849;55.992;37.252;2023-05-14T23:29:50;10.50;;;7.32;;
46110;SDS011;31849;55.992;37.252;2023-05-14T23:34:54;16.75;;;7.35;;
46110;SDS011;31849;55.992;37.252;2023-05-14T23:39:57;13.85;;;7.07;;
46110;SDS011;31849;55.992;37.252;2023-05-14T23:45:06;9.90;;;7.20;;
46110;SDS011;31849;55.992;37.252;2023-05-14T23:50:10;10.10;;;7.30;;
46110;SDS011;31849;55.992;37.252;2023-05-14T23:55:14;12.85;;;7.30;;
